Time;durP1;ratioP1;P1;durP2;ratioP2;P2;SDS_P1;SDS_P2;PMS_P1;PMS_P2;Temp;Humidity;BMP_temperature;BMP_pressure;BME280_temperature;BME280_humidity;BME280_pressure;Samples;Min_cycle;Max_cycle;Signal;HPM_P1;HPM_P2
2022/10/02 00:00:15;;;;;;;6.70;1.60;;;;;;;11.45;95.26;100169.22;5077874;28;20676;-81
2022/10/02 00:02:47;;;;;;;6.10;1.73;;;;;;;11.42;94.74;100161.47;5076862;28;20287;-80
2022/10/02 00:05:19;;;;;;;3.80;1.50;;;;;;;11.38;94.99;100173.75;5064568;28;20223;-81
2022/10/02 00:07:51;;;;;;;5.80;1.80;;;;;;;11.37;94.89;100173.81;5064360;28;20195;-80
2022/10/02 00:10:23;;;;;;;7.33;2.13;;;;;;;11.35;95.07;100168.59;5063791;28;20214;-81
2022/10/02 00:12:54;;;;;;;6.07;1.87;;;;;;;11.35;94.72;100166.00;5067516;28;20201;-81
2022/10/02 00:15:26;;;;;;;3.73;1.30;;;;;;;11.35;94.90;100170.38;5068482;28;20221;-81
2022/10/02 00:17:58;;;;;;;9.53;1.50;;;;;;;11.33;95.11;100168.63;5067533;28;20633;-80
2022/10/02 00:20:33;;;;;;;6.07;1.40;;;;;;;11.39;94.38;100182.47;5065062;28;20568;-81
2022/10/02 00:23:07;;;;;;;5.03;1.70;;;;;;;11.29;94.68;100187.91;5067330;28;20204;-81
2022/10/02 00:25:41;;;;;;;4.87;1.80;;;;;;;11.34;94.60;100190.44;5067796;28;20230;-80
2022/10/02 00:28:17;;;;;;;4.40;1.33;;;;;;;11.22;94.35;100198.56;5073692;28;20268;-81
2022/10/02 00:30:57;;;;;;;4.23;1.57;;;;;;;11.23;94.05;100205.50;5076437;28;20221;-81
2022/10/02 00:33:33;;;;;;;2.93;1.00;;;;;;;11.26;93.86;100206.28;5074656;28;20214;-81
2022/10/02 00:36:13;;;;;;;6.77;1.20;;;;;;;11.32;93.72;100218.34;5073572;28;20564;-81
2022/10/02 00:39:01;;;;;;;5.70;1.37;;;;;;;11.34;93.14;100240.06;5075202;28;20303;-81
2022/10/02 00:42:15;;;;;;;4.27;1.73;;;;;;;11.33;93.40;100251.41;5077182;28;20216;-81
2022/10/02 00:44:56;;;;;;;2.07;1.10;;;;;;;11.25;92.57;100255.97;5015211;28;20324;-81
2022/10/02 00:47:34;;;;;;;4.03;1.17;;;;;;;11.24;92.19;100273.41;5076577;28;20212;-80
2022/10/02 00:50:20;;;;;;;4.20;1.07;;;;;;;11.27;92.40;100269.84;5078582;28;20201;-80
2022/10/02 00:53:00;;;;;;;4.60;1.50;;;;;;;11.26;92.24;100276.00;5078605;28;20217;-80
2022/10/02 00:55:55;;;;;;;3.87;1.13;;;;;;;11.21;93.03;100268.25;5073108;28;20217;-81
2022/10/02 00:58:40;;;;;;;2.87;1.50;;;;;;;11.11;93.32;100246.72;5074743;28;20202;-81
2022/10/02 01:01:11;;;;;;;7.13;1.23;;;;;;;11.13;93.86;100231.84;5074170;28;20667;-80
2022/10/02 01:03:40;;;;;;;8.60;2.47;;;;;;;11.11;94.10;100204.91;5073739;28;20209;-80
2022/10/02 01:06:08;;;;;;;2.60;1.37;;;;;;;11.19;94.17;100198.66;5073372;28;20733;-80
2022/10/02 01:08:37;;;;;;;5.97;2.23;;;;;;;11.17;94.32;100203.91;5073730;28;20286;-80
2022/10/02 01:11:05;;;;;;;4.47;1.27;;;;;;;11.22;94.31;100206.41;5073558;28;20210;-80
2022/10/02 01:13:32;;;;;;;5.07;1.33;;;;;;;11.25;94.23;100201.09;5073835;28;20214;-81
2022/10/02 01:16:00;;;;;;;2.77;1.40;;;;;;;11.33;94.50;100197.38;5073140;28;20222;-80
2022/10/02 01:18:27;;;;;;;2.90;1.53;;;;;;;11.25;94.55;100204.56;5073757;28;20206;-80
2022/10/02 01:20:59;;;;;;;4.23;1.53;;;;;;;11.31;95.32;100190.50;5073127;28;20218;-80
2022/10/02 01:23:31;;;;;;;1.73;1.23;;;;;;;11.41;95.13;100191.09;5073042;28;20563;-80
2022/10/02 01:26:00;;;;;;;5.30;1.30;;;;;;;11.48;94.53;100192.69;5071032;28;20233;-80
2022/10/02 01:28:27;;;;;;;4.93;2.00;;;;;;;11.43;94.32;100205.00;5073232;28;20214;-80
2022/10/02 01:30:57;;;;;;;5.73;2.17;;;;;;;11.37;95.12;100198.16;5073286;28;20703;-80
2022/10/02 01:33:24;;;;;;;3.30;1.67;;;;;;;11.36;94.63;100208.66;5072819;28;20206;-80
2022/10/02 01:35:51;;;;;;;3.83;1.57;;;;;;;11.37;94.74;100200.78;5072424;28;20230;-80
2022/10/02 01:38:21;;;;;;;6.30;2.37;;;;;;;11.39;94.74;100205.97;5073033;28;20718;-80
2022/10/02 01:40:48;;;;;;;8.33;2.20;;;;;;;11.38;94.27;100220.81;5073340;28;20565;-80
2022/10/02 01:43:19;;;;;;;4.77;1.77;;;;;;;11.40;94.43;100207.72;5072711;28;20211;-80
2022/10/02 01:46:01;;;;;;;5.67;1.90;;;;;;;11.44;94.11;100228.47;5072021;28;20230;-80
2022/10/02 01:48:39;;;;;;;4.97;1.67;;;;;;;11.46;93.94;100229.31;5072232;28;20222;-80
2022/10/02 01:51:28;;;;;;;5.87;2.50;;;;;;;11.42;93.96;100232.91;5072886;28;20215;-81
2022/10/02 01:54:08;;;;;;;4.70;2.20;;;;;;;11.44;94.25;100231.09;5072903;28;20222;-81
2022/10/02 01:56:42;;;;;;;9.20;2.30;;;;;;;11.35;94.95;100218.25;5071878;28;20229;-81
2022/10/02 01:59:17;;;;;;;8.83;3.47;;;;;;;11.41;95.27;100209.41;5073370;28;20574;-81
2022/10/02 02:01:52;;;;;;;8.60;2.50;;;;;;;11.33;95.53;100199.16;5072263;28;20213;-81
2022/10/02 02:04:23;;;;;;;11.40;2.80;;;;;;;11.38;96.17;100178.09;5072140;28;20254;-81
2022/10/02 02:06:57;;;;;;;10.40;3.43;;;;;;;11.44;95.91;100173.59;5072392;28;20667;-81
2022/10/02 02:09:31;;;;;;;7.60;3.33;;;;;;;11.50;95.91;100172.59;5072339;28;20579;-81
2022/10/02 02:12:02;;;;;;;11.17;3.13;;;;;;;11.52;95.95;100176.84;5072460;28;20226;-81
2022/10/02 02:14:33;;;;;;;8.87;3.63;;;;;;;11.55;95.83;100188.13;5071980;28;20191;-81
2022/10/02 02:17:05;;;;;;;10.13;3.70;;;;;;;11.53;96.32;100182.94;5071492;28;20237;-81
2022/10/02 02:19:39;;;;;;;6.83;3.80;;;;;;;11.54;96.52;100171.59;5071560;28;20215;-81
2022/10/02 02:22:11;;;;;;;11.17;4.43;;;;;;;11.53;97.00;100162.91;5072263;28;20208;-81
2022/10/02 02:24:43;;;;;;;9.83;4.93;;;;;;;11.45;98.07;100137.84;5069969;28;20211;-81
2022/10/02 02:27:15;;;;;;;10.53;5.27;;;;;;;11.47;98.12;100126.44;5071676;28;20203;-81
2022/10/02 02:29:46;;;;;;;8.03;5.00;;;;;;;11.50;98.24;100130.75;5071942;28;20210;-81
2022/10/02 02:32:19;;;;;;;13.30;5.37;;;;;;;11.49;98.24;100123.81;5087273;28;20551;-82
2022/10/02 02:34:51;;;;;;;8.87;6.13;;;;;;;11.49;98.89;100110.72;5087411;28;20250;-82
2022/10/02 02:37:21;;;;;;;11.70;5.50;;;;;;;11.50;98.36;100118.53;5086699;28;20229;-82
2022/10/02 02:39:52;;;;;;;13.77;6.00;;;;;;;11.46;99.16;100106.47;5086095;28;20204;-82
2022/10/02 02:42:22;;;;;;;9.57;5.23;;;;;;;11.51;98.92;100107.16;5087384;28;20211;-81
2022/10/02 02:44:55;;;;;;;13.57;6.17;;;;;;;11.53;99.00;100109.75;5086902;28;20238;-81
2022/10/02 02:47:27;;;;;;;13.00;5.70;;;;;;;11.54;99.17;100119.31;5086416;28;20204;-81
2022/10/02 02:49:59;;;;;;;8.03;5.93;;;;;;;11.53;99.23;100117.59;5086671;28;20206;-82
2022/10/02 02:52:29;;;;;;;8.33;5.53;;;;;;;11.47;99.56;100116.00;5086584;28;20207;-81
2022/10/02 02:55:03;;;;;;;12.63;6.23;;;;;;;11.47;99.38;100118.63;5083404;28;20845;-81
2022/10/02 02:57:35;;;;;;;11.23;6.30;;;;;;;11.44;99.50;100121.31;5087528;28;20241;-82
2022/10/02 03:00:06;;;;;;;13.17;5.83;;;;;;;11.52;99.84;100113.28;5091322;28;20212;-82
2022/10/02 03:02:33;;;;;;;10.73;6.10;;;;;;;11.52;99.58;100128.97;5090637;28;20206;-82
2022/10/02 03:05:00;;;;;;;12.63;6.17;;;;;;;11.53;99.46;100128.03;5089749;28;20234;-82
2022/10/02 03:07:26;;;;;;;10.87;6.33;;;;;;;11.48;100.00;100122.09;5090735;28;20208;-82
2022/10/02 03:10:05;;;;;;;12.93;7.13;;;;;;;11.58;99.71;100126.16;5092085;28;20205;-82
2022/10/02 03:12:42;;;;;;;13.90;7.10;;;;;;;11.60;99.58;100134.81;5090628;28;20207;-82
2022/10/02 03:15:34;;;;;;;16.43;7.67;;;;;;;11.59;99.38;100140.09;5091953;28;20242;-82
2022/10/02 03:18:29;;;;;;;10.03;7.20;;;;;;;11.55;100.00;100122.78;5090100;28;20232;-82
2022/10/02 03:21:07;;;;;;;10.23;7.17;;;;;;;11.57;99.91;100118.38;5092053;28;20599;-82
2022/10/02 03:23:39;;;;;;;13.63;7.73;;;;;;;11.59;100.00;100127.88;5093598;28;20682;-81
2022/10/02 03:26:13;;;;;;;12.30;7.43;;;;;;;11.64;100.00;100127.75;5084070;28;20227;-81
2022/10/02 03:28:45;;;;;;;15.27;8.60;;;;;;;11.64;100.00;100120.75;5086563;28;20619;-81
2022/10/02 03:31:15;;;;;;;14.00;8.03;;;;;;;11.73;100.00;100122.25;5086075;28;20233;-82
2022/10/02 03:33:43;;;;;;;16.87;8.83;;;;;;;11.73;100.00;100117.91;5084734;28;20696;-81
2022/10/02 03:36:11;;;;;;;14.50;9.10;;;;;;;11.78;100.00;100120.38;5082586;28;20608;-81
2022/10/02 03:38:39;;;;;;;14.67;9.10;;;;;;;11.80;100.00;100118.56;5082653;28;20248;-81
2022/10/02 03:41:06;;;;;;;14.57;10.40;;;;;;;11.79;100.00;100105.53;5082456;28;20211;-80
2022/10/02 03:43:32;;;;;;;14.47;9.70;;;;;;;11.90;100.00;100117.41;5082636;28;20205;-81
2022/10/02 03:45:59;;;;;;;14.43;10.80;;;;;;;11.90;100.00;100113.97;5082684;28;20229;-81
2022/10/02 03:48:27;;;;;;;15.90;10.03;;;;;;;11.86;100.00;100121.00;5083564;28;20238;-81
2022/10/02 03:50:53;;;;;;;19.13;10.53;;;;;;;11.93;100.00;100106.00;5083233;28;20201;-80
2022/10/02 03:53:22;;;;;;;13.63;11.00;;;;;;;11.99;100.00;100104.97;5083376;28;20203;-81
2022/10/02 03:55:54;;;;;;;16.43;12.57;;;;;;;12.00;100.00;100104.94;5079815;28;20229;-81
2022/10/02 03:58:21;;;;;;;24.43;12.97;;;;;;;12.05;100.00;100099.53;5082729;28;20238;-81
2022/10/02 04:00:55;;;;;;;17.20;12.37;;;;;;;12.06;100.00;100086.44;5083177;28;20215;-81
2022/10/02 04:03:26;;;;;;;16.57;11.27;;;;;;;12.12;100.00;100094.06;5083227;28;20233;-80
2022/10/02 04:05:58;;;;;;;23.00;12.73;;;;;;;12.11;100.00;100097.63;5082106;28;20230;-81
2022/10/02 04:08:30;;;;;;;17.53;12.63;;;;;;;12.17;100.00;100107.03;5082834;28;20289;-81
2022/10/02 04:11:04;;;;;;;20.43;11.70;;;;;;;12.12;100.00;100107.16;5081974;28;20209;-81
2022/10/02 04:13:36;;;;;;;15.33;11.63;;;;;;;12.12;100.00;100109.78;5083444;28;20216;-81
2022/10/02 04:16:09;;;;;;;18.27;12.57;;;;;;;12.16;100.00;100120.16;5084957;28;20227;-81
2022/10/02 04:18:40;;;;;;;13.53;12.30;;;;;;;12.11;100.00;100117.69;5088936;28;20254;-82
2022/10/02 04:21:13;;;;;;;16.63;12.93;;;;;;;12.11;100.00;100121.16;5089040;28;20210;-82
2022/10/02 04:23:46;;;;;;;21.00;13.30;;;;;;;12.15;100.00;100126.28;5089736;28;20213;-82
2022/10/02 04:26:17;;;;;;;19.67;12.70;;;;;;;12.22;100.00;100133.91;5088783;28;20226;-82
2022/10/02 04:28:49;;;;;;;19.73;13.10;;;;;;;12.18;100.00;100136.66;5089908;28;20201;-82
2022/10/02 04:31:16;;;;;;;18.80;13.43;;;;;;;12.18;100.00;100141.91;5088893;28;20206;-81
2022/10/02 04:33:42;;;;;;;21.53;13.67;;;;;;;12.14;100.00;100150.75;5088971;28;20208;-81
2022/10/02 04:36:24;;;;;;;18.03;13.03;;;;;;;12.12;100.00;100154.25;5086659;28;20882;-81
2022/10/02 04:39:02;;;;;;;17.37;13.33;;;;;;;12.15;100.00;100160.31;5088203;28;20235;-81
2022/10/02 04:42:00;;;;;;;32.03;16.57;;;;;;;12.15;100.00;100148.09;5087389;28;20209;-82
2022/10/02 04:44:39;;;;;;;20.93;12.60;;;;;;;12.14;100.00;100150.75;5080633;28;20205;-81
2022/10/02 04:47:27;;;;;;;24.47;13.87;;;;;;;12.19;100.00;100151.44;5087069;28;20210;-81
2022/10/02 04:50:08;;;;;;;20.73;13.63;;;;;;;12.15;100.00;100137.63;5086878;28;20212;-81
2022/10/02 04:52:57;;;;;;;21.43;14.23;;;;;;;12.23;100.00;100150.47;5086157;28;20302;-81
2022/10/02 04:55:43;;;;;;;21.70;13.50;;;;;;;12.25;100.00;100160.00;5083840;28;20226;-82
2022/10/02 04:58:34;;;;;;;21.17;13.30;;;;;;;12.18;100.00;100171.53;5086565;28;20221;-81
2022/10/02 05:01:10;;;;;;;21.57;14.70;;;;;;;12.20;100.00;100163.66;5083094;28;20215;-81
2022/10/02 05:03:51;;;;;;;18.30;14.00;;;;;;;12.23;100.00;100164.41;5087446;28;20219;-81
2022/10/02 05:06:35;;;;;;;21.70;13.80;;;;;;;12.27;100.00;100173.88;5085941;28;20294;-81
2022/10/02 05:09:13;;;;;;;21.27;13.93;;;;;;;12.31;100.00;100185.97;5084915;28;20204;-81
2022/10/02 05:11:59;;;;;;;14.63;13.03;;;;;;;12.30;100.00;100192.09;5083141;28;20237;-81
2022/10/02 05:14:47;;;;;;;20.07;14.07;;;;;;;12.22;100.00;100190.63;5083955;28;20196;-81
2022/10/02 05:17:37;;;;;;;16.37;13.73;;;;;;;12.21;100.00;100191.50;5083271;28;20213;-81
2022/10/02 05:20:18;;;;;;;23.33;14.73;;;;;;;12.15;100.00;100169.03;5081283;28;20210;-81
2022/10/02 05:23:04;;;;;;;20.23;14.67;;;;;;;12.17;100.00;100151.53;5080533;28;20227;-81
2022/10/02 05:26:08;;;;;;;18.17;14.30;;;;;;;12.05;100.00;100150.13;5078352;28;20226;-81
2022/10/02 05:28:59;;;;;;;29.43;15.43;;;;;;;12.04;100.00;100131.84;5080631;28;20199;-81
2022/10/02 05:31:40;;;;;;;21.60;15.00;;;;;;;12.12;100.00;100122.84;5082728;28;20206;-82
2022/10/02 05:34:24;;;;;;;21.83;14.80;;;;;;;12.09;100.00;100141.28;5082802;28;20202;-82
2022/10/02 05:37:17;;;;;;;17.10;14.47;;;;;;;12.15;100.00;100140.25;5082653;28;20211;-82
2022/10/02 05:39:52;;;;;;;24.77;14.87;;;;;;;12.15;100.00;100144.59;5082834;28;20213;-82
2022/10/02 05:42:27;;;;;;;23.07;15.13;;;;;;;12.14;100.00;100153.38;5083134;28;20219;-82
2022/10/02 05:45:00;;;;;;;21.90;14.97;;;;;;;12.16;100.00;100157.66;5082394;28;20236;-82
2022/10/02 05:47:30;;;;;;;20.03;14.00;;;;;;;12.21;100.00;100167.97;5083536;28;20209;-82
2022/10/02 05:50:00;;;;;;;19.80;15.50;;;;;;;12.19;100.00;100165.41;5083545;28;20213;-82
2022/10/02 05:52:32;;;;;;;17.37;15.53;;;;;;;12.14;100.00;100182.16;5086245;28;20201;-82
2022/10/02 05:55:08;;;;;;;24.13;15.00;;;;;;;12.23;100.00;100172.28;5084825;28;20224;-82
2022/10/02 05:57:40;;;;;;;16.07;14.33;;;;;;;12.20;100.00;100188.06;5089656;28;20248;-82
2022/10/02 06:00:19;;;;;;;20.17;14.27;;;;;;;12.23;100.00;100189.72;5088701;28;20212;-82
2022/10/02 06:02:53;;;;;;;20.63;13.53;;;;;;;12.27;100.00;100200.06;5086348;28;20557;-82
2022/10/02 06:05:24;;;;;;;18.50;13.77;;;;;;;12.27;100.00;100213.16;5082928;28;20221;-82
2022/10/02 06:07:54;;;;;;;16.47;13.43;;;;;;;12.30;100.00;100212.19;5082895;28;20271;-82
2022/10/02 06:10:27;;;;;;;23.20;13.37;;;;;;;12.36;100.00;100214.63;5084017;28;20752;-82
2022/10/02 06:13:01;;;;;;;16.00;12.43;;;;;;;12.34;100.00;100212.97;5083035;28;20206;-82
2022/10/02 06:15:35;;;;;;;18.97;12.87;;;;;;;12.31;100.00;100201.69;5085005;28;20233;-82
2022/10/02 06:18:07;;;;;;;16.37;12.07;;;;;;;12.36;100.00;100217.25;5082556;28;20237;-82
2022/10/02 06:20:39;;;;;;;24.70;13.90;;;;;;;12.31;100.00;100214.78;5081704;28;20215;-81
2022/10/02 06:23:11;;;;;;;16.17;12.20;;;;;;;12.34;100.00;100215.56;5078291;28;20211;-80
2022/10/02 06:25:42;;;;;;;16.57;12.27;;;;;;;12.28;100.00;100221.84;5081645;28;20257;-81
2022/10/02 06:28:15;;;;;;;23.33;12.50;;;;;;;12.34;100.00;100208.56;5084931;28;20213;-81
2022/10/02 06:30:47;;;;;;;13.27;10.93;;;;;;;12.31;100.00;100209.53;5084131;28;20223;-80
2022/10/02 06:33:19;;;;;;;13.87;12.57;;;;;;;12.25;100.00;100216.69;5087176;28;20212;-79
2022/10/02 06:36:03;;;;;;;13.37;11.07;;;;;;;12.25;100.00;100220.19;5088222;28;20237;-80
2022/10/02 06:38:43;;;;;;;11.30;10.10;;;;;;;12.27;100.00;100222.75;5090609;28;20230;-80
2022/10/02 06:41:19;;;;;;;12.57;10.10;;;;;;;12.20;100.00;100231.69;5088957;28;20207;-80
2022/10/02 06:44:03;;;;;;;13.73;10.03;;;;;;;12.32;100.00;100236.56;5089132;28;20267;-81
2022/10/02 06:46:39;;;;;;;13.47;10.60;;;;;;;12.36;100.00;100230.31;5090716;28;20227;-81
2022/10/02 06:49:15;;;;;;;11.93;10.67;;;;;;;12.35;100.00;100235.59;5090378;28;20284;-81
2022/10/02 06:51:55;;;;;;;11.60;10.00;;;;;;;12.44;100.00;100241.41;5089299;28;20210;-80
2022/10/02 06:54:46;;;;;;;12.47;11.17;;;;;;;12.52;100.00;100242.03;5089104;28;20224;-80
2022/10/02 06:57:39;;;;;;;14.53;9.87;;;;;;;12.51;100.00;100236.88;5085201;28;20673;-80
2022/10/02 07:00:11;;;;;;;13.60;10.87;;;;;;;12.59;100.00;100236.66;5091876;28;20630;-80
2022/10/02 07:03:17;;;;;;;13.90;10.90;;;;;;;12.56;100.00;100248.06;5091002;28;20207;-81
2022/10/02 07:06:00;;;;;;;13.10;10.47;;;;;;;12.71;100.00;100244.97;5089363;28;20230;-80
2022/10/02 07:08:38;;;;;;;13.90;10.13;;;;;;;12.71;100.00;100250.22;5091533;28;20215;-80
2022/10/02 07:11:13;;;;;;;14.87;10.67;;;;;;;12.77;100.00;100243.94;5090692;28;20200;-80
2022/10/02 07:13:53;;;;;;;12.07;9.53;;;;;;;12.75;100.00;100250.97;5092128;28;20711;-80
2022/10/02 07:16:56;;;;;;;12.47;9.80;;;;;;;12.80;100.00;100256.91;5090443;28;20231;-80
2022/10/02 07:19:44;;;;;;;14.10;9.67;;;;;;;12.89;100.00;100261.03;5088408;28;20242;-80
2022/10/02 07:22:27;;;;;;;11.87;9.17;;;;;;;12.88;99.88;100260.19;5090845;28;20222;-80
2022/10/02 07:25:16;;;;;;;12.10;8.73;;;;;;;12.93;100.00;100254.78;5088899;28;20225;-80
2022/10/02 07:27:56;;;;;;;11.87;8.73;;;;;;;13.00;100.00;100260.66;5089503;28;20210;-81
2022/10/02 07:30:22;;;;;;;16.43;10.10;;;;;;;13.00;100.00;100266.78;5087424;28;20208;-79
2022/10/02 07:32:57;;;;;;;13.03;9.57;;;;;;;13.03;100.00;100261.44;5073937;28;20203;-81
2022/10/02 07:35:50;;;;;;;12.70;9.27;;;;;;;13.07;100.00;100270.06;5070245;28;20226;-80
2022/10/02 07:38:43;;;;;;;10.20;9.20;;;;;;;13.06;100.00;100263.97;5073604;28;20227;-80
2022/10/02 07:41:41;;;;;;;18.03;10.40;;;;;;;13.11;100.00;100274.31;5072612;28;20202;-80
2022/10/02 07:44:19;;;;;;;12.97;9.87;;;;;;;13.18;99.61;100281.06;5067698;28;20207;-79
2022/10/02 07:46:54;;;;;;;19.87;10.47;;;;;;;13.21;99.15;100304.53;5070358;28;20228;-79
2022/10/02 07:49:44;;;;;;;14.77;9.53;;;;;;;13.19;99.37;100302.88;5068673;28;20669;-79
2022/10/02 07:52:21;;;;;;;11.63;9.27;;;;;;;13.14;99.66;100295.19;5072156;28;20202;-79
2022/10/02 07:55:08;;;;;;;13.03;9.07;;;;;;;13.09;99.77;100297.94;5070927;28;20220;-80
2022/10/02 07:57:40;;;;;;;11.10;9.97;;;;;;;13.13;100.00;100285.59;5071532;28;20195;-80
2022/10/02 08:00:13;;;;;;;13.27;9.00;;;;;;;13.20;100.00;100289.75;5059657;28;20702;-81
2022/10/02 08:02:47;;;;;;;14.37;10.20;;;;;;;13.21;100.00;100304.53;5058687;28;20201;-80
2022/10/02 08:05:20;;;;;;;17.33;10.23;;;;;;;13.26;99.51;100313.13;5058449;28;20724;-80
2022/10/02 08:07:49;;;;;;;13.53;10.67;;;;;;;13.28;99.91;100318.34;5062524;28;20199;-80
2022/10/02 08:10:19;;;;;;;12.50;10.93;;;;;;;13.34;99.92;100312.03;5067833;28;20582;-80
2022/10/02 08:12:54;;;;;;;15.30;11.23;;;;;;;13.29;100.00;100320.91;5067791;28;20208;-79
2022/10/02 08:15:23;;;;;;;17.97;10.90;;;;;;;13.38;99.98;100324.13;5069602;28;20244;-79
2022/10/02 08:17:52;;;;;;;20.87;11.07;;;;;;;13.38;99.99;100309.28;5068519;28;20209;-79
2022/10/02 08:20:27;;;;;;;11.77;10.57;;;;;;;13.45;99.70;100316.03;5070490;28;20213;-79
2022/10/02 08:23:00;;;;;;;10.90;9.50;;;;;;;13.42;98.44;100334.50;5070581;28;20204;-79
2022/10/02 08:25:30;;;;;;;14.97;11.30;;;;;;;13.44;98.33;100350.19;5069113;28;20231;-79
2022/10/02 08:28:01;;;;;;;15.17;11.37;;;;;;;13.45;98.47;100352.72;5069530;28;20678;-79
2022/10/02 08:30:27;;;;;;;11.47;9.50;;;;;;;13.60;98.02;100361.88;5067632;28;20206;-79
2022/10/02 08:32:54;;;;;;;11.83;8.67;;;;;;;13.54;96.98;100385.69;5067914;28;20202;-78
2022/10/02 08:35:33;;;;;;;10.10;8.67;;;;;;;13.56;97.34;100385.63;5066559;28;20230;-79
2022/10/02 08:38:24;;;;;;;19.87;9.93;;;;;;;13.70;97.66;100376.41;5066870;28;20202;-79
2022/10/02 08:41:30;;;;;;;10.93;9.50;;;;;;;13.77;96.82;100386.69;5054294;28;20204;-79
2022/10/02 08:44:34;;;;;;;10.87;9.03;;;;;;;13.79;95.23;100429.47;5046114;28;20737;-79
2022/10/02 08:47:52;;;;;;;14.90;10.33;;;;;;;14.01;96.63;100419.13;5019818;28;20234;-80
2022/10/02 08:50:58;;;;;;;13.67;9.00;;;;;;;13.97;95.45;100423.63;5066639;28;20530;-79
2022/10/02 08:54:07;;;;;;;17.67;11.10;;;;;;;14.03;95.93;100431.31;5065321;28;20211;-78
2022/10/02 08:56:43;;;;;;;11.87;9.07;;;;;;;13.89;94.91;100433.50;5055970;28;20225;-78
2022/10/02 08:59:52;;;;;;;10.83;8.27;;;;;;;13.99;95.13;100447.19;5054282;28;20235;-79
2022/10/02 09:02:56;;;;;;;11.37;8.17;;;;;;;13.98;95.48;100443.72;5057442;28;20211;-78
2022/10/02 09:06:03;;;;;;;13.87;7.27;;;;;;;13.85;94.34;100461.63;5034977;28;20219;-80
2022/10/02 09:09:18;;;;;;;14.80;5.90;;;;;;;13.89;93.03;100501.75;5065954;28;20204;-80
2022/10/02 09:12:12;;;;;;;11.03;7.10;;;;;;;13.95;93.90;100498.91;5064671;28;20209;-79
2022/10/02 09:14:46;;;;;;;9.30;6.03;;;;;;;13.96;93.97;100487.53;5068411;28;20211;-79
2022/10/02 09:17:38;;;;;;;13.40;5.13;;;;;;;13.99;91.80;100518.91;5067492;28;20588;-79
2022/10/02 09:20:32;;;;;;;8.50;6.07;;;;;;;14.10;91.38;100532.56;5069615;28;20235;-80
2022/10/02 09:23:28;;;;;;;11.87;5.90;;;;;;;14.22;90.56;100560.19;5066581;28;20209;-80
2022/10/02 09:25:59;;;;;;;10.00;4.50;;;;;;;14.19;88.66;100589.19;5071644;28;20223;-80
2022/10/02 09:29:06;;;;;;;8.70;4.47;;;;;;;14.28;88.80;100604.63;5068801;28;20208;-81
2022/10/02 09:32:05;;;;;;;9.57;4.37;;;;;;;14.35;89.22;100604.44;5050144;28;20688;-80
2022/10/02 09:35:19;;;;;;;10.43;6.17;;;;;;;14.38;87.37;100628.81;5054884;28;20290;-81
2022/10/02 09:38:27;;;;;;;10.57;4.40;;;;;;;14.43;85.42;100683.81;5057456;28;20211;-79
2022/10/02 09:41:33;;;;;;;6.93;4.00;;;;;;;14.58;85.48;100691.28;5059673;28;20201;-79
2022/10/02 09:44:24;;;;;;;7.77;3.77;;;;;;;14.68;83.58;100734.72;5059821;28;20204;-80
2022/10/02 09:47:18;;;;;;;6.73;3.73;;;;;;;14.74;82.77;100770.47;5077553;28;20206;-81
2022/10/02 09:50:20;;;;;;;8.57;3.93;;;;;;;14.73;83.13;100768.78;5065355;28;20215;-79
2022/10/02 09:53:17;;;;;;;6.83;3.40;;;;;;;14.71;81.83;100796.88;5079462;28;20212;-80
2022/10/02 09:56:17;;;;;;;7.23;4.80;;;;;;;14.75;82.46;100793.22;5068313;28;20243;-80
2022/10/02 09:59:25;;;;;;;9.33;3.73;;;;;;;14.85;81.03;100806.94;5072597;28;20713;-79
2022/10/02 10:02:19;;;;;;;8.53;3.53;;;;;;;14.97;79.87;100847.78;5062597;28;20212;-80
2022/10/02 10:05:19;;;;;;;5.70;3.30;;;;;;;15.15;81.38;100807.75;5055655;28;20231;-79
2022/10/02 10:08:39;;;;;;;9.33;2.87;;;;;;;15.16;78.31;100888.34;5054543;28;20204;-79
2022/10/02 10:11:28;;;;;;;12.03;6.70;;;;;;;15.15;78.66;100868.22;4998369;28;20210;-81
2022/10/02 10:14:19;;;;;;;12.93;8.60;;;;;;;15.33;78.79;100861.53;5056364;28;20212;-81
2022/10/02 10:17:38;;;;;;;5.30;3.37;;;;;;;15.29;74.19;100954.59;5056505;28;20244;-79
2022/10/02 10:20:18;;;;;;;9.63;2.20;;;;;;;15.40;74.18;101010.38;4995032;28;20225;-80
2022/10/02 10:23:04;;;;;;;4.73;2.20;;;;;;;15.39;72.90;101034.97;5048546;28;20209;-80
2022/10/02 10:26:05;;;;;;;5.87;2.50;;;;;;;15.56;73.52;101033.59;5058816;28;20231;-79
2022/10/02 10:29:06;;;;;;;4.33;1.90;;;;;;;15.53;74.15;101033.69;5065128;28;20203;-78
2022/10/02 10:32:06;;;;;;;5.23;2.27;;;;;;;15.42;74.92;101013.84;5064982;28;20666;-78
2022/10/02 10:35:08;;;;;;;5.97;2.73;;;;;;;15.39;75.34;100978.84;5068315;28;20231;-79
2022/10/02 10:40:55;;;;;;;8.70;2.90;;;;;;;15.46;75.88;100927.75;5061392;28;20785;-79
2022/10/02 10:43:55;;;;;;;5.47;3.10;;;;;;;15.22;74.06;100961.81;5057521;28;20193;-78
2022/10/02 10:46:50;;;;;;;8.00;2.40;;;;;;;15.23;73.68;101008.25;5066373;28;20235;-79
2022/10/02 10:49:34;;;;;;;4.97;2.80;;;;;;;15.23;75.68;100955.63;5064382;28;20216;-79
2022/10/02 10:52:12;;;;;;;5.37;2.20;;;;;;;15.23;73.44;100976.69;5064858;28;20190;-79
2022/10/02 10:54:52;;;;;;;7.00;2.57;;;;;;;15.24;70.41;101051.19;5067802;28;20203;-80
2022/10/02 10:57:29;;;;;;;4.53;1.90;;;;;;;15.26;69.89;101110.75;5068216;28;20201;-80
2022/10/02 11:00:12;;;;;;;4.73;1.90;;;;;;;15.35;70.10;101133.28;5062987;28;20223;-79
2022/10/02 11:02:59;;;;;;;6.23;2.90;;;;;;;15.36;68.64;101142.91;5064083;28;20208;-79
2022/10/02 11:06:01;;;;;;;6.80;2.10;;;;;;;15.37;67.12;101217.44;5064635;28;20211;-78
2022/10/02 11:08:58;;;;;;;5.47;1.90;;;;;;;15.48;67.85;101191.72;5064288;28;20201;-77
2022/10/02 11:11:38;;;;;;;5.70;1.90;;;;;;;15.73;71.05;101135.78;5055041;28;20224;-80
2022/10/02 11:14:20;;;;;;;6.90;2.97;;;;;;;15.88;70.11;101082.66;5065547;28;20208;-79
2022/10/02 11:17:15;;;;;;;10.70;2.73;;;;;;;16.10;70.25;101084.66;5068835;28;20221;-79
2022/10/02 11:19:55;;;;;;;5.00;3.10;;;;;;;16.15;70.59;101040.56;5068414;28;20277;-79
2022/10/02 11:23:09;;;;;;;9.63;3.80;;;;;;;16.15;68.98;101057.22;5071869;28;20193;-79
2022/10/02 11:25:51;;;;;;;7.87;5.10;;;;;;;16.02;71.30;101033.06;5048784;28;20732;-78
2022/10/02 11:28:41;;;;;;;6.67;2.60;;;;;;;16.05;69.56;101050.53;5075340;28;20273;-80
2022/10/02 11:31:24;;;;;;;7.60;4.20;;;;;;;15.83;67.78;101067.00;5071977;28;20188;-77
2022/10/02 11:34:23;;;;;;;5.23;2.40;;;;;;;15.80;69.74;101092.56;5069742;28;20206;-79
2022/10/02 11:37:00;;;;;;;12.20;6.57;;;;;;;15.81;68.46;101089.88;5069923;28;20275;-78
2022/10/02 11:40:02;;;;;;;6.00;1.93;;;;;;;16.01;68.52;101104.19;5061198;28;20228;-79
2022/10/02 11:42:51;;;;;;;5.37;3.03;;;;;;;16.06;69.40;101068.91;5059248;28;20711;-78
2022/10/02 11:45:35;;;;;;;4.53;2.00;;;;;;;17.02;66.12;101087.69;5061167;28;20222;-78
2022/10/02 11:48:22;;;;;;;3.77;1.73;;;;;;;17.85;63.87;101200.03;5062075;28;20208;-78
2022/10/02 11:51:23;;;;;;;4.77;2.20;;;;;;;18.38;62.48;101283.50;5073314;28;20225;-79
2022/10/02 11:54:11;;;;;;;4.90;3.13;;;;;;;18.72;60.91;101340.38;5059858;28;20745;-80
2022/10/02 11:56:59;;;;;;;9.47;4.60;;;;;;;18.20;62.15;101370.47;5069037;28;20223;-78
2022/10/02 11:59:44;;;;;;;6.27;3.00;;;;;;;17.84;63.63;101293.41;5075194;28;20226;-79
2022/10/02 12:02:21;;;;;;;4.77;3.83;;;;;;;17.01;63.60;101272.41;5061075;28;20693;-79
2022/10/02 12:05:03;;;;;;;4.47;2.67;;;;;;;16.64;65.63;101247.19;5060874;28;20404;-77
2022/10/02 12:07:43;;;;;;;5.27;1.97;;;;;;;16.46;67.03;101145.81;5071629;28;20185;-79
2022/10/02 12:10:38;;;;;;;7.47;2.97;;;;;;;16.07;69.54;101061.88;5061647;28;20335;-78
2022/10/02 12:13:38;;;;;;;7.70;1.73;;;;;;;15.96;70.48;101049.06;5047457;28;20288;-78
2022/10/02 12:16:11;;;;;;;4.67;0.90;;;;;;;14.94;70.93;101087.06;5051101;28;20251;-78
2022/10/02 12:18:52;;;;;;;2.80;1.00;;;;;;;14.09;79.00;100840.63;5060039;28;20203;-78